createdAt,value
2023-02-14T00:01:28.980Z,11.57
2023-02-14T00:03:31.823Z,11.27
2023-02-14T00:05:34.755Z,11.97
2023-02-14T00:07:37.722Z,11.73
2023-02-14T00:09:41.893Z,11.63
2023-02-14T00:11:45.708Z,11.30
2023-02-14T00:14:02.517Z,11.40
2023-02-14T00:16:05.620Z,11.50
2023-02-14T00:18:08.403Z,11.23
2023-02-14T00:20:11.969Z,11.17
2023-02-14T00:22:14.855Z,12.13
2023-02-14T00:24:21.666Z,10.77
2023-02-14T00:26:25.919Z,10.97
2023-02-14T00:28:28.799Z,10.47
2023-02-14T00:30:31.728Z,12.60
2023-02-14T00:32:34.969Z,11.33
2023-02-14T00:34:37.930Z,11.83
2023-02-14T00:36:40.805Z,11.17
2023-02-14T00:38:43.555Z,11.93
2023-02-14T00:40:46.562Z,11.60
2023-02-14T00:42:50.745Z,12.13
2023-02-14T00:44:53.713Z,11.50
2023-02-14T00:46:56.485Z,11.90
2023-02-14T00:48:59.333Z,11.77
2023-02-14T00:51:02.075Z,11.57
2023-02-14T00:53:05.519Z,11.77
2023-02-14T00:55:08.579Z,12.83
2023-02-14T00:57:11.510Z,12.60
2023-02-14T00:59:15.728Z,12.63
2023-02-14T01:01:18.947Z,12.27
2023-02-14T01:03:21.995Z,11.83
2023-02-14T01:05:24.725Z,12.23
2023-02-14T01:07:27.785Z,12.57
2023-02-14T01:09:30.650Z,13.53
2023-02-14T01:11:33.393Z,13.60
2023-02-14T01:13:36.203Z,12.73
2023-02-14T01:15:42.421Z,14.07
2023-02-14T01:17:45.269Z,13.80
2023-02-14T01:19:48.364Z,14.97
2023-02-14T01:21:51.248Z,13.87
2023-02-14T01:23:57.713Z,14.33
2023-02-14T01:26:04.390Z,13.43
2023-02-14T01:28:07.767Z,14.10
2023-02-14T01:30:12.099Z,15.47
2023-02-14T01:32:16.383Z,15.77
2023-02-14T01:34:19.211Z,15.03
2023-02-14T01:36:24.854Z,15.30
2023-02-14T01:38:28.078Z,14.73
2023-02-14T01:40:31.014Z,16.20
2023-02-14T01:42:34.250Z,15.60
2023-02-14T01:45:01.828Z,16.27
2023-02-14T01:47:07.333Z,16.33
2023-02-14T01:49:14.547Z,15.83
2023-02-14T01:51:19.690Z,16.03
2023-02-14T01:53:27.058Z,15.87
2023-02-14T01:55:32.862Z,14.67
2023-02-14T01:57:39.791Z,15.43
2023-02-14T01:59:48.741Z,13.70
2023-02-14T02:01:53.197Z,15.87
2023-02-14T02:03:58.311Z,15.27
2023-02-14T02:06:09.478Z,15.50
2023-02-14T02:08:12.725Z,16.33
2023-02-14T02:10:15.492Z,16.27
2023-02-14T02:12:18.336Z,15.70
2023-02-14T02:14:23.707Z,15.10
2023-02-14T02:17:05.322Z,16.23
2023-02-14T02:19:26.403Z,14.70
2023-02-14T02:22:05.594Z,15.53
2023-02-14T02:24:21.281Z,16.13
2023-02-14T02:26:51.553Z,16.63
2023-02-14T02:29:21.525Z,16.97
2023-02-14T02:31:49.891Z,18.67
2023-02-14T02:34:34.765Z,17.73
2023-02-14T02:37:03.390Z,19.03
2023-02-14T02:39:18.008Z,18.53
2023-02-14T02:41:32.398Z,18.77
2023-02-14T02:43:47.784Z,18.97
2023-02-14T02:46:17.513Z,19.30
2023-02-14T02:48:24.267Z,19.30
2023-02-14T02:50:48.838Z,20.47
2023-02-14T02:53:02.827Z,19.40
2023-02-14T02:55:12.785Z,19.63
2023-02-14T02:57:22.222Z,19.43
2023-02-14T02:59:28.009Z,21.17
2023-02-14T03:01:34.596Z,20.47
2023-02-14T03:03:56.653Z,20.93
2023-02-14T03:05:59.996Z,19.57
2023-02-14T03:08:03.357Z,19.97
2023-02-14T03:10:14.065Z,20.57
2023-02-14T03:12:39.323Z,21.50
2023-02-14T03:14:49.159Z,21.03
2023-02-14T03:17:03.049Z,20.63
2023-02-14T03:19:39.923Z,19.77
2023-02-14T03:21:50.817Z,19.10
2023-02-14T03:23:59.324Z,18.87
2023-02-14T03:26:11.195Z,19.93
2023-02-14T03:28:19.313Z,18.67
2023-02-14T03:30:33.505Z,18.07
2023-02-14T03:32:43.310Z,16.70
2023-02-14T03:34:54.405Z,17.53
2023-02-14T03:37:02.184Z,16.77
2023-02-14T03:39:12.236Z,17.80
2023-02-14T03:41:21.251Z,17.23
2023-02-14T03:43:28.110Z,16.37
2023-02-14T03:45:35.535Z,16.03
2023-02-14T03:47:41.882Z,18.13
2023-02-14T03:49:50.918Z,17.40
2023-02-14T03:51:57.006Z,17.13
2023-02-14T03:54:00.554Z,18.23
2023-02-14T03:56:11.659Z,17.50
2023-02-14T03:58:20.992Z,17.30
2023-02-14T04:00:24.348Z,16.17
2023-02-14T04:02:33.075Z,17.33
2023-02-14T04:04:40.088Z,17.57
2023-02-14T04:06:42.955Z,18.23
2023-02-14T04:08:46.153Z,18.97
2023-02-14T04:10:49.266Z,17.37
2023-02-14T04:12:53.951Z,19.87
2023-02-14T04:14:56.799Z,18.23
2023-02-14T04:17:17.200Z,18.10
2023-02-14T04:19:25.617Z,18.77
2023-02-14T04:21:28.530Z,17.80
2023-02-14T04:23:31.503Z,19.37
2023-02-14T04:25:34.518Z,18.43
2023-02-14T04:27:37.499Z,18.13
2023-02-14T04:29:43.678Z,18.47
2023-02-14T04:31:46.828Z,17.27
2023-02-14T04:33:51.166Z,17.67
2023-02-14T04:35:54.209Z,16.30
2023-02-14T04:37:57.164Z,17.93
2023-02-14T04:40:00.046Z,16.73
2023-02-14T04:42:03.235Z,17.40
2023-02-14T04:44:06.459Z,17.00
2023-02-14T04:46:10.674Z,17.20
2023-02-14T04:48:14.548Z,16.97
2023-02-14T04:50:17.727Z,17.50
2023-02-14T04:52:20.628Z,17.10
2023-02-14T04:54:24.225Z,16.57
2023-02-14T04:56:27.318Z,17.00
2023-02-14T04:58:30.239Z,18.60
2023-02-14T05:00:33.367Z,17.73
2023-02-14T05:02:38.190Z,17.27
2023-02-14T05:04:41.089Z,17.63
2023-02-14T05:06:43.999Z,17.40
2023-02-14T05:08:46.982Z,16.80
2023-02-14T05:10:49.784Z,16.90
2023-02-14T05:12:52.684Z,18.70
2023-02-14T05:14:56.030Z,18.67
2023-02-14T05:16:59.083Z,19.70
2023-02-14T05:19:03.737Z,19.40
2023-02-14T05:21:08.101Z,17.47
2023-02-14T05:23:13.872Z,18.73
2023-02-14T05:25:16.952Z,19.87
2023-02-14T05:27:20.137Z,20.73
2023-02-14T05:29:22.967Z,19.10
2023-02-14T05:31:26.258Z,20.30
2023-02-14T05:33:29.609Z,21.93
2023-02-14T05:35:34.898Z,19.87
2023-02-14T05:37:37.893Z,19.23
2023-02-14T05:39:41.007Z,21.10
2023-02-14T05:41:43.806Z,19.83
2023-02-14T05:43:47.910Z,20.23
2023-02-14T05:45:50.801Z,20.53
2023-02-14T05:47:53.677Z,21.20
2023-02-14T05:49:56.538Z,21.10
2023-02-14T05:52:00.796Z,21.40
2023-02-14T05:54:03.696Z,22.00
2023-02-14T05:56:07.344Z,21.77
2023-02-14T05:58:12.061Z,20.67
2023-02-14T06:00:16.321Z,22.40
2023-02-14T06:02:19.583Z,23.97
2023-02-14T06:04:22.546Z,25.03
2023-02-14T06:06:25.759Z,26.27
2023-02-14T06:08:30.080Z,28.20
2023-02-14T06:10:33.177Z,29.83
2023-02-14T06:12:36.409Z,28.70
2023-02-14T06:14:43.402Z,31.53
2023-02-14T06:16:46.424Z,31.10
2023-02-14T06:18:49.374Z,31.90
2023-02-14T06:20:54.394Z,32.87
2023-02-14T06:22:57.378Z,33.03
2023-02-14T06:25:01.800Z,35.20
2023-02-14T06:27:04.944Z,34.40
2023-02-14T06:29:07.925Z,35.70
2023-02-14T06:31:16.866Z,35.50
2023-02-14T06:33:20.021Z,33.53
2023-02-14T06:35:23.360Z,35.07
2023-02-14T06:37:26.397Z,35.17
2023-02-14T06:39:29.380Z,36.07
2023-02-14T06:41:33.674Z,32.40
2023-02-14T06:43:37.135Z,32.93
2023-02-14T06:45:40.112Z,34.30
2023-02-14T06:47:43.850Z,34.00
2023-02-14T06:49:46.884Z,32.83
2023-02-14T06:51:49.767Z,31.57
2023-02-14T06:53:52.688Z,30.17
2023-02-14T06:55:56.145Z,34.13
2023-02-14T06:58:00.478Z,31.57
2023-02-14T07:00:04.119Z,30.50
2023-02-14T07:02:07.211Z,30.87
2023-02-14T07:04:10.355Z,28.50
2023-02-14T07:06:13.337Z,28.53
2023-02-14T07:08:16.189Z,28.97
2023-02-14T07:10:20.367Z,32.33
2023-02-14T07:12:23.240Z,28.00
2023-02-14T07:14:27.902Z,29.53
2023-02-14T07:16:30.811Z,30.23
2023-02-14T07:18:33.758Z,30.77
2023-02-14T07:20:36.566Z,31.20
2023-02-14T07:22:39.717Z,28.67
2023-02-14T07:24:42.611Z,32.83
2023-02-14T07:26:45.514Z,29.43
2023-02-14T07:28:49.372Z,29.47
2023-02-14T07:30:53.662Z,28.87
2023-02-14T07:32:57.593Z,29.50
2023-02-14T07:35:00.426Z,30.00
2023-02-14T07:37:03.632Z,30.80
2023-02-14T07:39:06.698Z,27.17
2023-02-14T07:41:09.844Z,29.33
2023-02-14T07:43:12.812Z,30.17
2023-02-14T07:45:21.620Z,27.67
2023-02-14T07:47:26.639Z,29.43
2023-02-14T07:49:30.018Z,30.03
2023-02-14T07:51:34.334Z,30.23
2023-02-14T07:53:37.255Z,31.93
2023-02-14T07:55:41.679Z,30.77
2023-02-14T07:57:44.789Z,32.10
2023-02-14T07:59:47.820Z,31.27
2023-02-14T08:01:50.855Z,31.20
2023-02-14T08:03:55.195Z,29.83
2023-02-14T08:05:58.177Z,29.50
2023-02-14T08:08:01.327Z,31.67
2023-02-14T08:10:04.771Z,31.07
2023-02-14T08:12:25.455Z,31.43
2023-02-14T08:14:28.448Z,32.43
2023-02-14T08:16:32.406Z,32.10
2023-02-14T08:18:38.112Z,33.70
2023-02-14T08:20:44.012Z,33.83
2023-02-14T08:22:47.264Z,35.53
2023-02-14T08:24:50.159Z,35.33
2023-02-14T08:26:53.118Z,34.20
2023-02-14T08:28:56.427Z,35.83
2023-02-14T08:31:00.103Z,37.50
2023-02-14T08:33:03.392Z,36.47
2023-02-14T08:35:06.600Z,39.20
2023-02-14T08:37:11.208Z,39.43
2023-02-14T08:39:14.185Z,39.13
2023-02-14T08:41:18.203Z,39.40
2023-02-14T08:43:21.324Z,38.10
2023-02-14T08:45:24.584Z,38.50
2023-02-14T08:47:27.565Z,38.90
2023-02-14T08:49:30.756Z,37.10
2023-02-14T08:51:33.804Z,37.40
2023-02-14T08:53:38.561Z,37.67
2023-02-14T08:55:41.771Z,37.80
2023-02-14T08:57:44.871Z,35.10
2023-02-14T08:59:48.003Z,37.03
2023-02-14T09:01:51.114Z,35.93
2023-02-14T09:03:54.275Z,37.13
2023-02-14T09:05:57.390Z,35.73
2023-02-14T09:08:02.189Z,33.90
2023-02-14T09:10:11.029Z,35.20
2023-02-14T09:12:14.248Z,34.50
2023-02-14T09:14:17.473Z,33.70
2023-02-14T09:16:26.548Z,33.30
2023-02-14T09:18:29.999Z,35.23
2023-02-14T09:20:34.663Z,35.63
2023-02-14T09:22:38.013Z,35.27
2023-02-14T09:24:41.795Z,33.13
2023-02-14T09:26:46.448Z,33.93
2023-02-14T09:28:52.385Z,32.90
2023-02-14T09:30:55.787Z,33.27
2023-02-14T09:33:00.853Z,34.00
2023-02-14T09:35:04.093Z,33.80
2023-02-14T09:37:24.961Z,32.73
2023-02-14T09:39:30.179Z,31.17
2023-02-14T09:41:51.860Z,30.13
2023-02-14T09:44:00.599Z,29.67
2023-02-14T09:46:06.198Z,29.13
2023-02-14T09:48:19.542Z,29.27
2023-02-14T09:50:28.025Z,29.13
2023-02-14T09:52:35.592Z,29.27
2023-02-14T09:54:39.008Z,28.87
2023-02-14T09:56:55.056Z,28.70
2023-02-14T09:59:07.539Z,29.00
2023-02-14T10:01:18.402Z,28.43
2023-02-14T10:03:59.090Z,29.57
2023-02-14T10:06:08.140Z,29.20
2023-02-14T10:08:40.510Z,29.77
2023-02-14T10:10:48.707Z,29.47
2023-02-14T10:12:57.819Z,29.07
2023-02-14T10:15:06.253Z,29.33
2023-02-14T10:17:15.855Z,30.00
2023-02-14T10:19:23.119Z,28.43
2023-02-14T10:21:37.657Z,28.73
2023-02-14T10:23:47.423Z,27.77
2023-02-14T10:25:59.052Z,28.23
2023-02-14T10:28:03.994Z,28.13
2023-02-14T10:30:21.019Z,27.77
2023-02-14T10:32:34.162Z,26.60
2023-02-14T10:34:45.918Z,26.57
2023-02-14T10:37:05.920Z,25.83
2023-02-14T10:39:33.521Z,26.97
2023-02-14T10:41:49.281Z,25.80
2023-02-14T10:44:02.251Z,24.80
2023-02-14T10:46:17.058Z,26.07
2023-02-14T10:48:37.699Z,25.17
2023-02-14T10:50:48.111Z,26.07
2023-02-14T10:53:04.863Z,26.13
2023-02-14T10:55:31.466Z,24.97
2023-02-14T10:57:46.529Z,26.27
2023-02-14T11:00:03.091Z,24.63
2023-02-14T11:02:12.865Z,24.23
2023-02-14T11:04:24.791Z,24.10
2023-02-14T11:06:28.284Z,27.03
2023-02-14T11:08:35.165Z,25.63
2023-02-14T11:10:41.610Z,25.33
2023-02-14T11:12:47.018Z,25.03
2023-02-14T11:15:08.845Z,24.70
2023-02-14T11:17:31.674Z,24.23
2023-02-14T11:19:43.627Z,24.20
2023-02-14T11:21:50.655Z,24.83
2023-02-14T11:23:54.872Z,22.27
2023-02-14T11:26:02.517Z,23.37
2023-02-14T11:28:10.479Z,24.30
2023-02-14T11:30:24.016Z,23.00
2023-02-14T11:32:29.199Z,22.53
2023-02-14T11:34:40.012Z,22.50
2023-02-14T11:36:46.075Z,23.33
2023-02-14T11:38:57.656Z,23.00
2023-02-14T11:41:01.939Z,23.80
2023-02-14T11:43:29.966Z,23.07
2023-02-14T11:45:37.723Z,22.00
2023-02-14T11:47:43.028Z,21.43
2023-02-14T11:49:58.810Z,23.43
2023-02-14T11:52:27.374Z,19.93
2023-02-14T11:54:39.175Z,21.27
2023-02-14T11:56:50.651Z,21.47
2023-02-14T11:58:58.178Z,20.50
2023-02-14T12:01:06.767Z,19.87
2023-02-14T12:03:21.933Z,20.97
2023-02-14T12:05:28.861Z,19.57
2023-02-14T12:07:34.492Z,20.70
2023-02-14T12:09:40.804Z,19.63
2023-02-14T12:11:56.763Z,19.17
2023-02-14T12:14:00.369Z,19.33
2023-02-14T12:16:20.991Z,17.60
2023-02-14T12:18:36.939Z,18.07
2023-02-14T12:20:45.656Z,19.00
2023-02-14T12:22:53.230Z,19.67
2023-02-14T12:25:03.663Z,19.27
2023-02-14T12:27:20.025Z,19.43
2023-02-14T12:29:27.284Z,18.47
2023-02-14T12:33:53.873Z,19.20
2023-02-14T12:36:09.539Z,18.57
2023-02-14T12:38:25.259Z,18.03
2023-02-14T12:40:42.388Z,18.93
2023-02-14T12:43:06.000Z,18.20
2023-02-14T12:45:18.798Z,19.30
2023-02-14T12:47:45.372Z,18.70
2023-02-14T12:50:10.716Z,18.90
2023-02-14T12:52:31.638Z,18.80
2023-02-14T12:54:49.987Z,19.90
2023-02-14T12:57:04.555Z,19.00
2023-02-14T12:59:23.167Z,17.73
2023-02-14T13:02:04.490Z,19.13
2023-02-14T13:04:53.892Z,19.80
2023-02-14T13:07:07.626Z,19.83
2023-02-14T13:09:28.459Z,19.80
2023-02-14T13:11:42.159Z,19.40
2023-02-14T13:13:57.333Z,19.53
2023-02-14T13:16:12.114Z,19.70
2023-02-14T13:18:22.715Z,18.93
2023-02-14T13:20:41.349Z,18.70
2023-02-14T13:22:45.068Z,18.77
2023-02-14T13:24:53.453Z,19.03
2023-02-14T13:27:03.299Z,18.20
2023-02-14T13:29:11.094Z,18.77
2023-02-14T13:31:15.243Z,19.47
2023-02-14T13:33:34.108Z,19.97
2023-02-14T13:35:40.413Z,18.63
2023-02-14T13:37:48.902Z,19.53
2023-02-14T13:39:58.483Z,19.40
2023-02-14T13:42:08.923Z,20.20
2023-02-14T13:44:13.020Z,19.23
2023-02-14T13:46:19.285Z,19.63
2023-02-14T13:48:25.745Z,19.97
2023-02-14T13:50:31.246Z,20.57
2023-02-14T13:52:44.280Z,21.13
2023-02-14T13:54:49.560Z,21.07
2023-02-14T13:56:53.209Z,20.67
2023-02-14T13:58:59.888Z,19.47
2023-02-14T14:01:31.480Z,20.20
2023-02-14T14:03:58.448Z,20.53
2023-02-14T14:06:07.576Z,18.30
2023-02-14T14:08:42.424Z,19.60
2023-02-14T14:10:51.030Z,19.20
2023-02-14T14:12:54.938Z,19.57
2023-02-14T14:15:13.317Z,18.93
2023-02-14T14:17:26.339Z,18.93
2023-02-14T14:19:47.051Z,19.37
2023-02-14T14:22:03.190Z,20.07
2023-02-14T14:24:22.519Z,19.00
2023-02-14T14:26:37.237Z,18.90
2023-02-14T14:28:41.649Z,20.20
2023-02-14T14:30:45.657Z,19.73
2023-02-14T14:32:51.186Z,21.10
2023-02-14T14:34:58.983Z,20.03
2023-02-14T14:37:03.767Z,20.17
2023-02-14T14:39:06.819Z,21.13
2023-02-14T14:41:11.525Z,20.67
2023-02-14T14:43:17.952Z,20.07
2023-02-14T14:45:25.092Z,20.87
2023-02-14T14:47:33.426Z,21.10
2023-02-14T14:49:38.207Z,20.37
2023-02-14T14:51:41.564Z,21.43
2023-02-14T14:53:48.904Z,20.20
2023-02-14T14:55:55.754Z,19.93
2023-02-14T14:58:09.866Z,20.10
2023-02-14T15:00:27.445Z,19.27
2023-02-14T15:02:32.236Z,19.57
2023-02-14T15:04:36.657Z,19.33
2023-02-14T15:06:40.940Z,19.87
2023-02-14T15:08:45.276Z,18.93
2023-02-14T15:10:52.340Z,20.03
2023-02-14T15:13:18.089Z,20.30
2023-02-14T15:15:25.360Z,19.70
2023-02-14T15:17:32.908Z,19.83
2023-02-14T15:19:41.140Z,18.53
2023-02-14T15:21:48.523Z,20.30
2023-02-14T15:23:52.988Z,21.03
2023-02-14T15:25:56.407Z,20.77
2023-02-14T15:28:01.241Z,21.13
2023-02-14T15:30:09.029Z,22.07
2023-02-14T15:32:13.150Z,20.63
2023-02-14T15:34:48.613Z,22.37
2023-02-14T15:36:59.650Z,21.37
2023-02-14T15:39:05.563Z,22.07
2023-02-14T15:41:09.990Z,20.90
2023-02-14T15:43:28.367Z,21.97
2023-02-14T15:45:37.995Z,23.73
2023-02-14T15:47:43.671Z,23.97
2023-02-14T15:49:47.614Z,21.53
2023-02-14T15:51:51.771Z,21.77
2023-02-14T15:54:00.438Z,21.60
2023-02-14T15:56:07.821Z,21.57
2023-02-14T15:58:20.439Z,22.93
2023-02-14T16:00:25.574Z,22.20
2023-02-14T16:02:36.062Z,21.67
2023-02-14T16:04:39.543Z,22.30
2023-02-14T16:06:46.052Z,22.23
2023-02-14T16:08:56.224Z,22.47
2023-02-14T16:11:01.776Z,23.07
2023-02-14T16:13:09.371Z,23.10
2023-02-14T16:15:33.170Z,21.33
2023-02-14T16:17:36.821Z,22.07
2023-02-14T16:19:42.370Z,22.37
2023-02-14T16:21:57.196Z,21.10
2023-02-14T16:24:13.636Z,20.30
2023-02-14T16:26:16.781Z,20.93
2023-02-14T16:28:22.364Z,21.07
2023-02-14T16:30:25.492Z,23.07
2023-02-14T16:32:30.137Z,22.27
2023-02-14T16:34:33.211Z,21.87
2023-02-14T16:36:36.470Z,24.77
2023-02-14T16:38:46.392Z,25.53
2023-02-14T16:40:52.067Z,24.17
2023-02-14T16:42:55.760Z,23.63
2023-02-14T16:44:59.197Z,24.07
2023-02-14T16:47:05.614Z,29.53
2023-02-14T16:49:10.416Z,30.80
2023-02-14T16:51:14.862Z,26.60
2023-02-14T16:53:26.471Z,25.90
2023-02-14T16:55:30.047Z,25.20
2023-02-14T16:57:36.683Z,25.00
2023-02-14T16:59:39.760Z,26.93
2023-02-14T17:01:42.930Z,27.27
2023-02-14T17:03:46.122Z,29.47
2023-02-14T17:05:50.918Z,28.73
2023-02-14T17:07:55.633Z,27.27
2023-02-14T17:10:01.932Z,29.27
2023-02-14T17:12:13.352Z,27.93
2023-02-14T17:14:21.936Z,28.07
2023-02-14T17:16:38.250Z,26.10
2023-02-14T17:18:43.514Z,25.77
2023-02-14T17:20:46.609Z,25.00
2023-02-14T17:22:51.299Z,25.03
2023-02-14T17:24:56.875Z,25.17
2023-02-14T17:27:00.261Z,28.33
2023-02-14T17:29:03.348Z,26.87
2023-02-14T17:31:07.234Z,24.03
2023-02-14T17:33:10.498Z,24.63
2023-02-14T17:35:16.503Z,24.73
2023-02-14T17:37:20.352Z,23.70
2023-02-14T17:39:25.023Z,24.10
2023-02-14T17:41:35.045Z,25.57
2023-02-14T17:43:38.091Z,24.97
2023-02-14T17:45:41.652Z,25.13
2023-02-14T17:47:45.339Z,25.43
2023-02-14T17:49:48.835Z,26.07
2023-02-14T17:51:52.068Z,24.83
2023-02-14T17:53:55.368Z,24.97
2023-02-14T17:56:05.493Z,25.20
2023-02-14T17:58:08.390Z,24.60
2023-02-14T18:00:14.066Z,24.73
2023-02-14T18:02:17.414Z,25.50
2023-02-14T18:04:20.443Z,24.90
2023-02-14T18:06:23.715Z,26.53
2023-02-14T18:08:29.772Z,30.20
2023-02-14T18:10:32.705Z,26.83
2023-02-14T18:12:37.898Z,27.97
2023-02-14T18:14:40.909Z,26.13
2023-02-14T18:16:44.627Z,28.00
2023-02-14T18:18:47.915Z,25.93
2023-02-14T18:20:54.981Z,26.63
2023-02-14T18:22:58.004Z,27.27
2023-02-14T18:25:01.081Z,27.63
2023-02-14T18:27:06.156Z,27.10
2023-02-14T18:29:11.086Z,28.30
2023-02-14T18:31:16.246Z,29.67
2023-02-14T18:33:19.542Z,27.80
2023-02-14T18:35:22.817Z,26.40
2023-02-14T18:37:27.223Z,26.90
2023-02-14T18:39:30.483Z,26.80
2023-02-14T18:41:33.744Z,26.27
2023-02-14T18:43:37.756Z,27.57
2023-02-14T18:45:42.398Z,28.33
2023-02-14T18:47:45.430Z,26.90
2023-02-14T18:49:48.724Z,25.27
2023-02-14T18:51:52.026Z,24.83
2023-02-14T18:53:56.679Z,26.77
2023-02-14T18:55:59.741Z,25.70
2023-02-14T18:58:03.018Z,26.07
2023-02-14T19:00:11.905Z,28.30
2023-02-14T19:02:16.604Z,27.87
2023-02-14T19:04:19.618Z,26.77
2023-02-14T19:06:24.584Z,27.77
2023-02-14T19:08:28.679Z,26.90
2023-02-14T19:10:31.713Z,27.13
2023-02-14T19:12:35.461Z,27.27
2023-02-14T19:14:38.578Z,30.60
2023-02-14T19:16:50.106Z,34.57
2023-02-14T19:18:55.400Z,34.33
2023-02-14T19:20:58.607Z,36.57
2023-02-14T19:23:03.821Z,36.57
2023-02-14T19:25:08.340Z,35.53
2023-02-14T19:27:11.437Z,34.53
2023-02-14T19:29:16.767Z,34.50
2023-02-14T19:31:19.781Z,31.27
2023-02-14T19:33:22.977Z,30.87
2023-02-14T19:35:27.329Z,31.10
2023-02-14T19:37:30.314Z,32.87
2023-02-14T19:39:33.404Z,32.57
2023-02-14T19:41:36.519Z,34.30
2023-02-14T19:43:39.762Z,33.47
2023-02-14T19:45:42.796Z,33.33
2023-02-14T19:47:47.576Z,33.43
2023-02-14T19:49:50.655Z,34.87
2023-02-14T19:51:56.327Z,33.70
2023-02-14T19:54:02.158Z,34.43
2023-02-14T19:56:06.281Z,34.50
2023-02-14T19:58:09.366Z,34.60
2023-02-14T20:00:14.090Z,34.87
2023-02-14T20:02:19.841Z,34.23
2023-02-14T20:04:25.231Z,35.47
2023-02-14T20:06:29.235Z,33.57
2023-02-14T20:08:33.800Z,38.33
2023-02-14T20:10:37.122Z,35.50
2023-02-14T20:12:42.536Z,34.47
2023-02-14T20:14:51.296Z,32.97
2023-02-14T20:16:57.149Z,33.90
2023-02-14T20:19:24.342Z,33.63
2023-02-14T20:21:28.379Z,35.43
2023-02-14T20:23:34.760Z,33.27
2023-02-14T20:25:40.817Z,33.00
2023-02-14T20:27:43.715Z,33.03
2023-02-14T20:29:47.024Z,31.40
2023-02-14T20:31:52.619Z,32.63
2023-02-14T20:33:56.887Z,32.33
2023-02-14T20:35:59.818Z,33.07
2023-02-14T20:38:07.469Z,32.40
2023-02-14T20:40:13.354Z,30.50
2023-02-14T20:42:16.455Z,32.27
2023-02-14T20:44:21.492Z,30.03
2023-02-14T20:46:24.765Z,32.60
2023-02-14T20:48:27.892Z,31.57
2023-02-14T20:50:31.221Z,30.93
2023-02-14T20:52:36.668Z,29.73
2023-02-14T20:54:49.717Z,31.83
2023-02-14T20:57:11.402Z,35.25
2023-02-14T20:59:19.197Z,31.70
2023-02-14T21:01:28.970Z,32.23
2023-02-14T21:03:32.365Z,31.57
2023-02-14T21:05:37.703Z,31.23
2023-02-14T21:07:52.015Z,31.20
2023-02-14T21:10:01.154Z,30.80
2023-02-14T21:12:06.418Z,31.60
2023-02-14T21:14:09.441Z,31.47
2023-02-14T21:16:14.936Z,31.27
2023-02-14T21:18:18.115Z,30.40
2023-02-14T21:20:21.105Z,30.10
2023-02-14T21:22:24.239Z,29.20
2023-02-14T21:24:27.259Z,31.00
2023-02-14T21:26:30.141Z,31.37
2023-02-14T21:28:34.466Z,30.97
2023-02-14T21:30:37.465Z,29.77
2023-02-14T21:32:40.456Z,32.77
2023-02-14T21:34:43.537Z,30.57
2023-02-14T21:36:46.570Z,31.83
2023-02-14T21:38:50.439Z,31.57
2023-02-14T21:41:04.178Z,32.03
2023-02-14T21:43:07.140Z,30.17
2023-02-14T21:45:31.360Z,31.30
2023-02-14T21:47:37.655Z,29.80
2023-02-14T21:49:57.897Z,30.07
2023-02-14T21:52:01.925Z,29.67
2023-02-14T21:54:06.523Z,31.23
2023-02-14T21:56:11.365Z,30.87
2023-02-14T21:58:14.357Z,30.60
2023-02-14T22:00:19.080Z,28.47
2023-02-14T22:02:21.944Z,29.57
2023-02-14T22:04:25.625Z,29.87
2023-02-14T22:06:29.459Z,28.57
2023-02-14T22:08:33.021Z,28.80
2023-02-14T22:10:35.922Z,27.87
2023-02-14T22:12:38.874Z,27.23
2023-02-14T22:14:41.800Z,26.57
2023-02-14T22:16:46.203Z,27.47
2023-02-14T22:18:49.487Z,27.33
2023-02-14T22:20:55.089Z,27.77
2023-02-14T22:22:58.081Z,27.83
2023-02-14T22:25:00.969Z,26.90
2023-02-14T22:27:03.912Z,27.10
2023-02-14T22:29:07.905Z,26.97
2023-02-14T22:31:11.352Z,29.63
2023-02-14T22:33:15.801Z,28.93
2023-02-14T22:35:18.736Z,26.67
2023-02-14T22:37:21.656Z,27.63
2023-02-14T22:39:24.724Z,28.27
2023-02-14T22:41:27.837Z,26.27
2023-02-14T22:43:30.759Z,26.87
2023-02-14T22:45:33.530Z,30.30
2023-02-14T22:47:37.447Z,27.20
2023-02-14T22:49:41.894Z,29.70
2023-02-14T22:51:44.912Z,28.53
2023-02-14T22:53:48.039Z,30.80
2023-02-14T22:55:50.875Z,29.23
2023-02-14T22:57:53.782Z,29.40
2023-02-14T22:59:56.810Z,27.93
2023-02-14T23:02:01.188Z,28.13
2023-02-14T23:04:05.647Z,28.00
2023-02-14T23:06:10.621Z,28.47
2023-02-14T23:08:13.408Z,28.13
2023-02-14T23:10:16.418Z,28.07
2023-02-14T23:12:36.646Z,28.30
2023-02-14T23:14:57.185Z,25.93
2023-02-14T23:17:16.776Z,26.37
2023-02-14T23:19:38.913Z,26.33
2023-02-14T23:21:58.263Z,28.23
2023-02-14T23:24:01.083Z,26.77
2023-02-14T23:26:03.948Z,27.30
2023-02-14T23:28:06.870Z,28.70
2023-02-14T23:30:13.438Z,31.00
2023-02-14T23:32:17.024Z,27.53
2023-02-14T23:34:20.100Z,28.13
2023-02-14T23:36:23.071Z,26.77
2023-02-14T23:38:27.335Z,25.97
2023-02-14T23:40:50.213Z,26.37
2023-02-14T23:42:55.564Z,26.10
2023-02-14T23:45:18.625Z,27.53
2023-02-14T23:47:21.471Z,26.43
2023-02-14T23:49:25.756Z,25.33
2023-02-14T23:51:30.936Z,25.23
2023-02-14T23:53:35.379Z,27.43
2023-02-14T23:55:38.394Z,25.60
2023-02-14T23:57:41.488Z,25.47
2023-02-14T23:59:44.537Z,25.17
